ZSRMH FAPE-FAPE
Flight info
| Callsign | ZSRMH |
|---|---|
| Flight time | 0h 3m |
| Altitude | 1500 |
| Route | FAPE DCT SEAVIEW DCT MAITLAND DCT GAMTOOS RETURN FLIGHT BACK TO FAPE |
| Aircraft | R44/L-VGD/C |
Departure
| Time | 2026-04-25 13:08 |
|---|---|
| Airport | Chief Dawid Stuurman International Airport (FAPE) |
Arrival
| Time | 2026-04-25 13:12 |
|---|---|
| Airport | Chief Dawid Stuurman International Airport (FAPE) |
| Time | Latitude | Longitude | Altitude | Speed | Heading |
|---|---|---|---|---|---|
| 2026-04-25 13:03 | -33.98581 | 25.60899 | 206 ft | 0 kts | 331° |
| 2026-04-25 13:07 | -33.98583 | 25.60897 | 218 ft | 3 kts | 223° |
| 2026-04-25 13:07 | -33.98694 | 25.60933 | 230 ft | 40 kts | 154° |
| 2026-04-25 13:07 | -33.99049 | 25.61036 | 348 ft | 73 kts | 187° |
| 2026-04-25 13:08 | -33.99547 | 25.60755 | 619 ft | 90 kts | 219° |
| 2026-04-25 13:08 | -33.99934 | 25.60111 | 883 ft | 96 kts | 242° |
| 2026-04-25 13:08 | -34.00278 | 25.59348 | 928 ft | 108 kts | 239° |
| 2026-04-25 13:08 | -34.00648 | 25.58558 | 1039 ft | 108 kts | 243° |
| 2026-04-25 13:09 | -34.00971 | 25.57765 | 1186 ft | 106 kts | 246° |
| 2026-04-25 13:09 | -34.01239 | 25.56867 | 1163 ft | 117 kts | 249° |
| 2026-04-25 13:09 | -34.01503 | 25.55916 | 1125 ft | 123 kts | 252° |
| 2026-04-25 13:09 | -34.01758 | 25.54926 | 1123 ft | 123 kts | 253° |
| 2026-04-25 13:10 | -34.01994 | 25.53942 | 1076 ft | 120 kts | 252° |
| 2026-04-25 13:10 | -34.02218 | 25.53051 | 1269 ft | 102 kts | 250° |
| 2026-04-25 13:10 | -34.02527 | 25.52187 | 1099 ft | 120 kts | 248° |
| 2026-04-25 13:10 | -34.02788 | 25.51189 | 1046 ft | 124 kts | 255° |
| 2026-04-25 13:11 | -34.02921 | 25.50197 | 1011 ft | 113 kts | 261° |
| 2026-04-25 13:11 | -34.02956 | 25.49300 | 952 ft | 103 kts | 269° |
| 2026-04-25 13:11 | -34.03007 | 25.48466 | 844 ft | 98 kts | 265° |
| 2026-04-25 13:11 | -34.03003 | 25.47677 | 833 ft | 88 kts | 265° |
| 2026-04-25 13:12 | -34.03060 | 25.47081 | 1099 ft | 45 kts | 247° |
| 2026-04-25 13:12 | -34.03112 | 25.46834 | 1021 ft | 47 kts | 236° |
| 2026-04-25 13:12 | -34.03145 | 25.46090 | 277 ft | 95 kts | 266° |
| 2026-04-25 13:12 | -34.03124 | 25.45588 | 272 ft | 87 kts | 267° |
| 2026-04-25 13:13 | -34.03254 | 25.44689 | 427 ft | 70 kts | 258° |
| 2026-04-25 13:13 | -34.03351 | 25.44004 | 310 ft | 92 kts | 263° |
| 2026-04-25 13:13 | -34.03369 | 25.43185 | 414 ft | 102 kts | 268° |
| 2026-04-25 13:13 | -34.03301 | 25.42381 | 737 ft | 87 kts | 278° |
| 2026-04-25 13:14 | -34.03215 | 25.41617 | 757 ft | 104 kts | 272° |
| 2026-04-25 13:14 | -34.03067 | 25.40756 | 797 ft | 97 kts | 287° |
| 2026-04-25 13:14 | -34.02799 | 25.40007 | 808 ft | 106 kts | 292° |
| 2026-04-25 13:14 | -34.02529 | 25.39142 | 735 ft | 112 kts | 285° |
| 2026-04-25 13:15 | -34.02221 | 25.38247 | 649 ft | 119 kts | 290° |
| 2026-04-25 13:15 | -34.01972 | 25.37284 | 324 ft | 119 kts | 287° |
| 2026-04-25 13:15 | -34.01709 | 25.36363 | 186 ft | 115 kts | 292° |
| 2026-04-25 13:15 | -34.01350 | 25.35567 | 176 ft | 101 kts | 296° |
| 2026-04-25 13:16 | -34.01092 | 25.34866 | 164 ft | 83 kts | 296° |
| 2026-04-25 13:16 | -34.00924 | 25.34223 | 121 ft | 90 kts | 289° |
| 2026-04-25 13:16 | -34.00657 | 25.33510 | 135 ft | 97 kts | 298° |
| 2026-04-25 13:16 | -34.00272 | 25.32784 | 94 ft | 106 kts | 289° |
| 2026-04-25 13:17 | -33.99900 | 25.31990 | 70 ft | 110 kts | 293° |
| 2026-04-25 13:17 | -33.99599 | 25.31158 | 95 ft | 105 kts | 297° |
| 2026-04-25 13:17 | -33.99309 | 25.30352 | 130 ft | 104 kts | 288° |
| 2026-04-25 13:17 | -33.99028 | 25.29597 | 229 ft | 100 kts | 303° |
| 2026-04-25 13:18 | -33.98768 | 25.28879 | 382 ft | 93 kts | 286° |
| 2026-04-25 13:18 | -33.98584 | 25.28076 | 481 ft | 102 kts | 285° |
| 2026-04-25 13:18 | -33.98375 | 25.27209 | 285 ft | 117 kts | 286° |
| 2026-04-25 13:18 | -33.98132 | 25.26311 | 399 ft | 106 kts | 288° |
| 2026-04-25 13:19 | -33.97872 | 25.25492 | 548 ft | 103 kts | 290° |
| 2026-04-25 13:19 | -33.97645 | 25.24756 | 891 ft | 88 kts | 287° |
| 2026-04-25 13:19 | -33.97396 | 25.24177 | 1407 ft | 73 kts | 298° |
| 2026-04-25 13:19 | -33.97307 | 25.23724 | 1543 ft | 92 kts | 286° |
| 2026-04-25 13:20 | -33.97210 | 25.22635 | 1221 ft | 99 kts | 267° |
| 2026-04-25 13:20 | -33.97213 | 25.21773 | 1025 ft | 107 kts | 270° |
| 2026-04-25 13:20 | -33.97089 | 25.20850 | 880 ft | 117 kts | 278° |
| 2026-04-25 13:20 | -33.96955 | 25.19901 | 922 ft | 109 kts | 278° |
| 2026-04-25 13:21 | -33.96882 | 25.18970 | 884 ft | 117 kts | 274° |
| 2026-04-25 13:21 | -33.96702 | 25.17994 | 748 ft | 119 kts | 280° |
| 2026-04-25 13:21 | -33.96592 | 25.17068 | 899 ft | 107 kts | 271° |
| 2026-04-25 13:21 | -33.96556 | 25.16189 | 1034 ft | 93 kts | 267° |
| 2026-04-25 13:22 | -33.96577 | 25.15347 | 1034 ft | 109 kts | 266° |
| 2026-04-25 13:22 | -33.96647 | 25.14473 | 1140 ft | 100 kts | 262° |
| 2026-04-25 13:22 | -33.96604 | 25.13503 | 699 ft | 126 kts | 271° |
| 2026-04-25 13:23 | -33.96643 | 25.11619 | 714 ft | 106 kts | 264° |
| 2026-04-25 13:23 | -33.96632 | 25.10735 | 718 ft | 105 kts | 268° |
| 2026-04-25 13:23 | -33.96696 | 25.09870 | 760 ft | 98 kts | 262° |
| 2026-04-25 13:23 | -33.96792 | 25.09103 | 933 ft | 90 kts | 262° |
| 2026-04-25 13:24 | -33.96830 | 25.08305 | 992 ft | 99 kts | 263° |
| 2026-04-25 13:24 | -33.96849 | 25.07436 | 1020 ft | 107 kts | 259° |
| 2026-04-25 13:24 | -33.96975 | 25.06502 | 802 ft | 117 kts | 262° |
| 2026-04-25 13:24 | -33.96669 | 25.05611 | 383 ft | 113 kts | 302° |
| 2026-04-25 13:25 | -33.96341 | 25.04823 | 190 ft | 100 kts | 284° |
| 2026-04-25 13:25 | -33.96245 | 25.04042 | 198 ft | 91 kts | 275° |
| 2026-04-25 13:25 | -33.96101 | 25.03277 | 121 ft | 96 kts | 274° |
| 2026-04-25 13:25 | -33.96125 | 25.02488 | 73 ft | 88 kts | 252° |
| 2026-04-25 13:26 | -33.96439 | 25.02033 | 52 ft | 55 kts | 227° |
| 2026-04-25 13:26 | -33.96544 | 25.01861 | -5 ft | 0 kts | 231° |
| 2026-04-25 13:27 | -33.96553 | 25.01887 | 24 ft | 21 kts | 119° |
| 2026-04-25 13:27 | -33.96466 | 25.02336 | 54 ft | 78 kts | 92° |
| 2026-04-25 13:27 | -33.96491 | 25.03086 | 130 ft | 96 kts | 98° |
| 2026-04-25 13:28 | -33.96564 | 25.03934 | 242 ft | 108 kts | 98° |
| 2026-04-25 13:28 | -33.96581 | 25.04240 | 259 ft | 110 kts | 98° |
| 2026-04-25 13:28 | -33.96686 | 25.05853 | 412 ft | 116 kts | 92° |
| 2026-04-25 13:28 | -33.96715 | 25.06861 | 432 ft | 123 kts | 96° |
| 2026-04-25 13:29 | -33.96588 | 25.07934 | 353 ft | 133 kts | 88° |
| 2026-04-25 13:29 | -33.96556 | 25.09006 | 391 ft | 126 kts | 90° |
| 2026-04-25 13:29 | -33.96555 | 25.10010 | 453 ft | 117 kts | 97° |
| 2026-04-25 13:30 | -33.96676 | 25.11795 | 971 ft | 121 kts | 102° |
| 2026-04-25 13:30 | -33.96738 | 25.12809 | 968 ft | 123 kts | 93° |
| 2026-04-25 13:30 | -33.96738 | 25.13849 | 975 ft | 126 kts | 94° |
| 2026-04-25 13:31 | -33.96868 | 25.15942 | 1098 ft | 120 kts | 99° |
| 2026-04-25 13:31 | -33.96929 | 25.16953 | 1189 ft | 123 kts | 98° |
| 2026-04-25 13:31 | -33.97004 | 25.18023 | 1169 ft | 126 kts | 99° |
| 2026-04-25 13:31 | -33.97115 | 25.19086 | 1124 ft | 130 kts | 99° |
| 2026-04-25 13:32 | -33.97234 | 25.20196 | 980 ft | 135 kts | 104° |
| 2026-04-25 13:32 | -33.97448 | 25.21261 | 1046 ft | 133 kts | 112° |
| 2026-04-25 13:32 | -33.97695 | 25.22316 | 1062 ft | 131 kts | 108° |
| 2026-04-25 13:32 | -33.98019 | 25.23359 | 1088 ft | 132 kts | 115° |
| 2026-04-25 13:33 | -33.98385 | 25.24371 | 1089 ft | 130 kts | 118° |
| 2026-04-25 13:33 | -33.98749 | 25.25370 | 1094 ft | 127 kts | 115° |
| 2026-04-25 13:33 | -33.99059 | 25.26372 | 1105 ft | 128 kts | 115° |
| 2026-04-25 13:33 | -33.99284 | 25.27039 | 1107 ft | 130 kts | 114° |
| 2026-04-25 13:34 | -33.99686 | 25.28378 | 1074 ft | 129 kts | 110° |
| 2026-04-25 13:34 | -34.00043 | 25.29348 | 1089 ft | 126 kts | 122° |
| 2026-04-25 13:34 | -34.00324 | 25.30355 | 932 ft | 137 kts | 94° |
| 2026-04-25 13:34 | -34.00091 | 25.31484 | 645 ft | 132 kts | 78° |
| 2026-04-25 13:35 | -34.00289 | 25.32507 | 281 ft | 124 kts | 121° |
| 2026-04-25 13:35 | -34.00661 | 25.33416 | 299 ft | 120 kts | 120° |
| 2026-04-25 13:35 | -34.01041 | 25.34313 | 253 ft | 122 kts | 117° |
| 2026-04-25 13:35 | -34.01431 | 25.35232 | 291 ft | 119 kts | 125° |
| 2026-04-25 13:36 | -34.01760 | 25.36187 | 245 ft | 125 kts | 110° |
| 2026-04-25 13:36 | -34.01940 | 25.37173 | 473 ft | 114 kts | 99° |
| 2026-04-25 13:36 | -34.02151 | 25.38106 | 461 ft | 119 kts | 117° |
| 2026-04-25 13:36 | -34.02619 | 25.38961 | 481 ft | 122 kts | 134° |
| 2026-04-25 13:37 | -34.03065 | 25.39881 | 369 ft | 133 kts | 114° |
| 2026-04-25 13:37 | -34.03230 | 25.40968 | 427 ft | 127 kts | 93° |
| 2026-04-25 13:37 | -34.03181 | 25.42070 | 343 ft | 135 kts | 91° |
| 2026-04-25 13:37 | -34.03105 | 25.43180 | 403 ft | 127 kts | 88° |
| 2026-04-25 13:38 | -34.03016 | 25.44234 | 436 ft | 126 kts | 85° |
| 2026-04-25 13:38 | -34.02877 | 25.45274 | 470 ft | 125 kts | 86° |
| 2026-04-25 13:38 | -34.02944 | 25.46358 | 415 ft | 132 kts | 104° |
| 2026-04-25 13:38 | -34.03274 | 25.47373 | 564 ft | 123 kts | 120° |
| 2026-04-25 13:39 | -34.03457 | 25.48339 | 501 ft | 122 kts | 97° |
| 2026-04-25 13:39 | -34.03488 | 25.49371 | 270 ft | 120 kts | 102° |
| 2026-04-25 13:39 | -34.03637 | 25.50349 | 228 ft | 117 kts | 105° |
| 2026-04-25 13:39 | -34.03756 | 25.51290 | 193 ft | 118 kts | 96° |
| 2026-04-25 13:40 | -34.03735 | 25.52269 | 92 ft | 112 kts | 110° |
| 2026-04-25 13:40 | -34.04052 | 25.53120 | 145 ft | 113 kts | 113° |
| 2026-04-25 13:40 | -34.04049 | 25.54100 | 157 ft | 119 kts | 100° |
| 2026-04-25 13:40 | -34.04199 | 25.55053 | 280 ft | 117 kts | 97° |
| 2026-04-25 13:41 | -34.04248 | 25.56042 | 395 ft | 118 kts | 98° |
| 2026-04-25 13:41 | -34.04450 | 25.57057 | 360 ft | 123 kts | 117° |
| 2026-04-25 13:41 | -34.04833 | 25.57969 | 254 ft | 126 kts | 114° |
| 2026-04-25 13:41 | -34.04700 | 25.59051 | 238 ft | 128 kts | 78° |
| 2026-04-25 13:42 | -34.04412 | 25.60056 | 231 ft | 127 kts | 80° |
| 2026-04-25 13:42 | -34.04261 | 25.61064 | 324 ft | 120 kts | 70° |
| 2026-04-25 13:42 | -34.03753 | 25.61803 | 495 ft | 116 kts | 62° |
| 2026-04-25 13:42 | -34.03363 | 25.62615 | 764 ft | 105 kts | 69° |
| 2026-04-25 13:43 | -34.03043 | 25.63464 | 730 ft | 104 kts | 74° |
| 2026-04-25 13:43 | -34.02605 | 25.64012 | 937 ft | 99 kts | 11° |
| 2026-04-25 13:43 | -34.01838 | 25.63922 | 814 ft | 120 kts | 343° |
| 2026-04-25 13:43 | -34.01064 | 25.63514 | 709 ft | 122 kts | 325° |
| 2026-04-25 13:44 | -34.00381 | 25.62929 | 653 ft | 123 kts | 322° |
| 2026-04-25 13:44 | -33.99660 | 25.62344 | 572 ft | 124 kts | 322° |
| 2026-04-25 13:44 | -33.99057 | 25.61893 | 471 ft | 59 kts | 325° |
| 2026-04-25 13:44 | -33.98883 | 25.61769 | 250 ft | 24 kts | 179° |
| 2026-04-25 13:45 | -33.98990 | 25.61855 | 255 ft | 29 kts | 290° |
| 2026-04-25 13:45 | -33.98974 | 25.61850 | 208 ft | 0 kts | 250° |
| 2026-04-25 13:45 | -33.98974 | 25.61849 | 207 ft | 0 kts | 249° |
| 2026-04-25 13:46 | -33.98939 | 25.61836 | 223 ft | 25 kts | 348° |
| 2026-04-25 13:46 | -33.98744 | 25.61610 | 268 ft | 55 kts | 275° |
| 2026-04-25 13:46 | -33.98873 | 25.61172 | 272 ft | 45 kts | 251° |
| 2026-04-25 13:47 | -33.98735 | 25.60969 | 230 ft | 28 kts | 322° |
| 2026-04-25 13:47 | -33.98677 | 25.60915 | 233 ft | 16 kts | 299° |
| 2026-04-25 13:47 | -33.98618 | 25.60855 | 210 ft | 1 kts | 239° |
| 2026-04-25 13:47 | -33.98616 | 25.60851 | 206 ft | 0 kts | 233° |